sensor_id;sensor_type;location;lat;lon;timestamp;P1;durP1;ratioP1;P2;durP2;ratioP2
41881;SDS011;27562;47.524;12.404;2023-07-13T00:01:50;3.28;;;1.40;;
41881;SDS011;27562;47.524;12.404;2023-07-13T00:04:20;2.60;;;1.58;;
41881;SDS011;27562;47.524;12.404;2023-07-13T00:06:50;3.53;;;1.58;;
41881;SDS011;27562;47.524;12.404;2023-07-13T00:09:17;3.45;;;1.55;;
41881;SDS011;27562;47.524;12.404;2023-07-13T00:11:44;5.00;;;1.65;;
41881;SDS011;27562;47.524;12.404;2023-07-13T00:14:12;4.28;;;1.90;;
41881;SDS011;27562;47.524;12.404;2023-07-13T00:16:40;4.30;;;1.50;;
41881;SDS011;27562;47.524;12.404;2023-07-13T00:19:08;4.00;;;1.90;;
41881;SDS011;27562;47.524;12.404;2023-07-13T00:21:36;2.63;;;1.48;;
41881;SDS011;27562;47.524;12.404;2023-07-13T00:24:06;3.03;;;1.50;;
41881;SDS011;27562;47.524;12.404;2023-07-13T00:26:32;2.83;;;1.40;;
41881;SDS011;27562;47.524;12.404;2023-07-13T00:28:59;3.03;;;1.58;;
41881;SDS011;27562;47.524;12.404;2023-07-13T00:31:24;3.20;;;1.38;;
41881;SDS011;27562;47.524;12.404;2023-07-13T00:33:50;3.47;;;1.40;;
41881;SDS011;27562;47.524;12.404;2023-07-13T00:36:16;3.55;;;1.70;;
41881;SDS011;27562;47.524;12.404;2023-07-13T00:38:42;2.80;;;1.50;;
41881;SDS011;27562;47.524;12.404;2023-07-13T00:41:08;3.88;;;1.63;;
41881;SDS011;27562;47.524;12.404;2023-07-13T00:43:34;4.57;;;1.80;;
41881;SDS011;27562;47.524;12.404;2023-07-13T00:46:17;3.47;;;1.48;;
41881;SDS011;27562;47.524;12.404;2023-07-13T00:48:44;3.75;;;1.60;;
41881;SDS011;27562;47.524;12.404;2023-07-13T00:51:12;2.40;;;1.48;;
41881;SDS011;27562;47.524;12.404;2023-07-13T00:53:41;2.80;;;1.38;;
41881;SDS011;27562;47.524;12.404;2023-07-13T00:56:07;2.80;;;1.33;;
41881;SDS011;27562;47.524;12.404;2023-07-13T00:58:33;3.03;;;1.30;;
41881;SDS011;27562;47.524;12.404;2023-07-13T01:01:00;2.78;;;1.50;;
41881;SDS011;27562;47.524;12.404;2023-07-13T01:03:26;2.70;;;1.40;;
41881;SDS011;27562;47.524;12.404;2023-07-13T01:05:52;2.65;;;1.52;;
41881;SDS011;27562;47.524;12.404;2023-07-13T01:08:19;3.55;;;1.40;;
41881;SDS011;27562;47.524;12.404;2023-07-13T01:10:56;2.58;;;1.40;;
41881;SDS011;27562;47.524;12.404;2023-07-13T01:13:24;3.15;;;1.15;;
41881;SDS011;27562;47.524;12.404;2023-07-13T01:15:50;2.90;;;1.30;;
41881;SDS011;27562;47.524;12.404;2023-07-13T01:18:27;2.78;;;1.23;;
41881;SDS011;27562;47.524;12.404;2023-07-13T01:23:19;4.05;;;1.45;;
41881;SDS011;27562;47.524;12.404;2023-07-13T01:25:45;4.85;;;1.50;;
41881;SDS011;27562;47.524;12.404;2023-07-13T01:28:11;3.85;;;1.40;;
41881;SDS011;27562;47.524;12.404;2023-07-13T01:30:38;4.57;;;1.63;;
41881;SDS011;27562;47.524;12.404;2023-07-13T01:33:08;3.55;;;1.48;;
41881;SDS011;27562;47.524;12.404;2023-07-13T01:35:34;5.72;;;3.45;;
41881;SDS011;27562;47.524;12.404;2023-07-13T01:38:00;3.50;;;2.20;;
41881;SDS011;27562;47.524;12.404;2023-07-13T01:40:27;4.82;;;1.65;;
41881;SDS011;27562;47.524;12.404;2023-07-13T01:42:53;3.30;;;1.40;;
41881;SDS011;27562;47.524;12.404;2023-07-13T01:45:18;4.88;;;3.00;;
41881;SDS011;27562;47.524;12.404;2023-07-13T01:47:44;6.22;;;3.45;;
41881;SDS011;27562;47.524;12.404;2023-07-13T01:50:10;5.05;;;2.80;;
41881;SDS011;27562;47.524;12.404;2023-07-13T01:52:35;11.68;;;6.68;;
41881;SDS011;27562;47.524;12.404;2023-07-13T01:55:01;11.80;;;7.20;;
41881;SDS011;27562;47.524;12.404;2023-07-13T01:57:27;6.60;;;4.53;;
41881;SDS011;27562;47.524;12.404;2023-07-13T01:59:53;4.70;;;2.95;;
41881;SDS011;27562;47.524;12.404;2023-07-13T02:02:18;4.50;;;2.33;;
41881;SDS011;27562;47.524;12.404;2023-07-13T02:04:44;2.42;;;1.65;;
41881;SDS011;27562;47.524;12.404;2023-07-13T02:07:10;2.90;;;1.60;;
41881;SDS011;27562;47.524;12.404;2023-07-13T02:09:36;3.10;;;1.55;;
41881;SDS011;27562;47.524;12.404;2023-07-13T02:12:02;2.25;;;1.33;;
41881;SDS011;27562;47.524;12.404;2023-07-13T02:14:28;2.65;;;1.10;;
41881;SDS011;27562;47.524;12.404;2023-07-13T02:16:53;3.20;;;1.20;;
41881;SDS011;27562;47.524;12.404;2023-07-13T02:19:19;2.15;;;1.10;;
41881;SDS011;27562;47.524;12.404;2023-07-13T02:21:45;2.72;;;1.30;;
41881;SDS011;27562;47.524;12.404;2023-07-13T02:24:11;1.85;;;1.02;;
41881;SDS011;27562;47.524;12.404;2023-07-13T02:26:42;2.38;;;1.00;;
41881;SDS011;27562;47.524;12.404;2023-07-13T02:29:11;3.05;;;1.17;;
41881;SDS011;27562;47.524;12.404;2023-07-13T02:31:37;2.47;;;0.95;;
41881;SDS011;27562;47.524;12.404;2023-07-13T02:34:03;5.05;;;1.10;;
41881;SDS011;27562;47.524;12.404;2023-07-13T02:36:29;5.10;;;1.90;;
41881;SDS011;27562;47.524;12.404;2023-07-13T02:38:55;7.57;;;3.38;;
41881;SDS011;27562;47.524;12.404;2023-07-13T02:41:21;6.13;;;2.85;;
41881;SDS011;27562;47.524;12.404;2023-07-13T02:43:48;3.42;;;1.60;;
41881;SDS011;27562;47.524;12.404;2023-07-13T02:46:14;3.00;;;1.55;;
41881;SDS011;27562;47.524;12.404;2023-07-13T02:48:39;4.05;;;1.40;;
41881;SDS011;27562;47.524;12.404;2023-07-13T02:51:05;2.13;;;1.17;;
41881;SDS011;27562;47.524;12.404;2023-07-13T02:53:32;2.97;;;1.27;;
41881;SDS011;27562;47.524;12.404;2023-07-13T02:55:58;2.80;;;1.45;;
41881;SDS011;27562;47.524;12.404;2023-07-13T02:58:24;3.85;;;1.38;;
41881;SDS011;27562;47.524;12.404;2023-07-13T03:00:51;5.65;;;1.73;;
41881;SDS011;27562;47.524;12.404;2023-07-13T03:03:17;7.10;;;2.05;;
41881;SDS011;27562;47.524;12.404;2023-07-13T03:05:43;4.63;;;1.80;;
41881;SDS011;27562;47.524;12.404;2023-07-13T03:08:10;3.70;;;1.90;;
41881;SDS011;27562;47.524;12.404;2023-07-13T03:10:37;3.58;;;1.80;;
41881;SDS011;27562;47.524;12.404;2023-07-13T03:13:04;5.40;;;1.70;;
41881;SDS011;27562;47.524;12.404;2023-07-13T03:15:30;3.75;;;1.80;;
41881;SDS011;27562;47.524;12.404;2023-07-13T03:17:56;3.83;;;2.03;;
41881;SDS011;27562;47.524;12.404;2023-07-13T03:20:22;4.68;;;2.00;;
41881;SDS011;27562;47.524;12.404;2023-07-13T03:22:47;3.90;;;1.65;;
41881;SDS011;27562;47.524;12.404;2023-07-13T03:25:13;2.63;;;1.38;;
41881;SDS011;27562;47.524;12.404;2023-07-13T03:27:39;4.10;;;1.27;;
41881;SDS011;27562;47.524;12.404;2023-07-13T03:30:05;2.40;;;1.35;;
41881;SDS011;27562;47.524;12.404;2023-07-13T03:32:31;4.03;;;1.10;;
41881;SDS011;27562;47.524;12.404;2023-07-13T03:34:57;1.92;;;1.08;;
41881;SDS011;27562;47.524;12.404;2023-07-13T03:37:22;3.55;;;1.27;;
41881;SDS011;27562;47.524;12.404;2023-07-13T03:39:48;2.25;;;1.27;;
41881;SDS011;27562;47.524;12.404;2023-07-13T03:42:15;3.22;;;1.17;;
41881;SDS011;27562;47.524;12.404;2023-07-13T03:44:41;3.15;;;1.20;;
41881;SDS011;27562;47.524;12.404;2023-07-13T03:47:07;1.75;;;1.00;;
41881;SDS011;27562;47.524;12.404;2023-07-13T03:49:34;1.50;;;0.90;;
41881;SDS011;27562;47.524;12.404;2023-07-13T03:52:00;5.10;;;1.30;;
41881;SDS011;27562;47.524;12.404;2023-07-13T03:54:25;2.72;;;1.20;;
41881;SDS011;27562;47.524;12.404;2023-07-13T03:56:51;4.47;;;1.30;;
41881;SDS011;27562;47.524;12.404;2023-07-13T03:59:17;2.75;;;1.20;;
41881;SDS011;27562;47.524;12.404;2023-07-13T04:01:43;1.75;;;1.10;;
41881;SDS011;27562;47.524;12.404;2023-07-13T04:04:09;2.35;;;1.20;;
41881;SDS011;27562;47.524;12.404;2023-07-13T04:06:35;3.13;;;1.20;;
41881;SDS011;27562;47.524;12.404;2023-07-13T04:09:02;2.47;;;1.27;;
41881;SDS011;27562;47.524;12.404;2023-07-13T04:11:31;1.67;;;1.10;;
41881;SDS011;27562;47.524;12.404;2023-07-13T04:13:58;2.40;;;1.20;;
41881;SDS011;27562;47.524;12.404;2023-07-13T04:16:25;3.28;;;1.40;;
41881;SDS011;27562;47.524;12.404;2023-07-13T04:18:50;2.20;;;1.20;;
41881;SDS011;27562;47.524;12.404;2023-07-13T04:21:21;1.55;;;1.00;;
41881;SDS011;27562;47.524;12.404;2023-07-13T04:23:47;1.98;;;1.10;;
41881;SDS011;27562;47.524;12.404;2023-07-13T04:26:12;2.88;;;1.08;;
41881;SDS011;27562;47.524;12.404;2023-07-13T04:28:38;3.00;;;1.27;;
41881;SDS011;27562;47.524;12.404;2023-07-13T04:31:04;1.70;;;0.95;;
41881;SDS011;27562;47.524;12.404;2023-07-13T04:33:30;2.20;;;1.20;;
41881;SDS011;27562;47.524;12.404;2023-07-13T04:35:55;3.55;;;1.60;;
41881;SDS011;27562;47.524;12.404;2023-07-13T04:38:23;2.30;;;1.20;;
41881;SDS011;27562;47.524;12.404;2023-07-13T04:40:49;2.50;;;1.00;;
41881;SDS011;27562;47.524;12.404;2023-07-13T04:43:16;2.65;;;1.10;;
41881;SDS011;27562;47.524;12.404;2023-07-13T04:45:42;2.85;;;0.93;;
41881;SDS011;27562;47.524;12.404;2023-07-13T04:48:08;1.42;;;1.00;;
41881;SDS011;27562;47.524;12.404;2023-07-13T04:50:36;2.13;;;1.10;;
41881;SDS011;27562;47.524;12.404;2023-07-13T04:53:02;3.25;;;1.05;;
41881;SDS011;27562;47.524;12.404;2023-07-13T04:55:29;2.00;;;1.20;;
41881;SDS011;27562;47.524;12.404;2023-07-13T04:57:55;4.80;;;1.40;;
41881;SDS011;27562;47.524;12.404;2023-07-13T05:00:21;2.00;;;1.20;;
41881;SDS011;27562;47.524;12.404;2023-07-13T05:02:47;3.03;;;1.52;;
41881;SDS011;27562;47.524;12.404;2023-07-13T05:05:13;2.35;;;1.30;;
41881;SDS011;27562;47.524;12.404;2023-07-13T05:07:38;2.20;;;1.20;;
41881;SDS011;27562;47.524;12.404;2023-07-13T05:10:04;4.07;;;1.20;;
41881;SDS011;27562;47.524;12.404;2023-07-13T05:12:30;2.80;;;1.30;;
41881;SDS011;27562;47.524;12.404;2023-07-13T05:14:56;2.92;;;1.77;;
41881;SDS011;27562;47.524;12.404;2023-07-13T05:17:22;3.42;;;1.70;;
41881;SDS011;27562;47.524;12.404;2023-07-13T05:19:47;3.28;;;1.92;;
41881;SDS011;27562;47.524;12.404;2023-07-13T05:22:13;3.10;;;1.80;;
41881;SDS011;27562;47.524;12.404;2023-07-13T05:24:39;3.25;;;1.70;;
41881;SDS011;27562;47.524;12.404;2023-07-13T05:27:04;2.72;;;1.63;;
41881;SDS011;27562;47.524;12.404;2023-07-13T05:29:30;3.15;;;1.60;;
41881;SDS011;27562;47.524;12.404;2023-07-13T05:31:56;2.70;;;1.70;;
41881;SDS011;27562;47.524;12.404;2023-07-13T05:34:22;4.05;;;1.70;;
41881;SDS011;27562;47.524;12.404;2023-07-13T05:36:48;2.90;;;1.45;;
41881;SDS011;27562;47.524;12.404;2023-07-13T05:39:14;3.47;;;1.50;;
41881;SDS011;27562;47.524;12.404;2023-07-13T05:41:40;2.67;;;1.60;;
41881;SDS011;27562;47.524;12.404;2023-07-13T05:44:06;2.08;;;1.38;;
41881;SDS011;27562;47.524;12.404;2023-07-13T05:46:32;2.83;;;1.52;;
41881;SDS011;27562;47.524;12.404;2023-07-13T05:48:58;2.83;;;1.55;;
41881;SDS011;27562;47.524;12.404;2023-07-13T05:51:24;3.13;;;1.48;;
41881;SDS011;27562;47.524;12.404;2023-07-13T05:53:50;3.75;;;1.58;;
41881;SDS011;27562;47.524;12.404;2023-07-13T05:56:15;4.15;;;1.50;;
41881;SDS011;27562;47.524;12.404;2023-07-13T05:58:41;3.38;;;1.40;;
41881;SDS011;27562;47.524;12.404;2023-07-13T06:01:09;2.28;;;1.52;;
41881;SDS011;27562;47.524;12.404;2023-07-13T06:03:36;3.65;;;1.67;;
41881;SDS011;27562;47.524;12.404;2023-07-13T06:06:05;3.13;;;1.60;;
41881;SDS011;27562;47.524;12.404;2023-07-13T06:08:32;3.28;;;1.48;;
41881;SDS011;27562;47.524;12.404;2023-07-13T06:11:02;2.65;;;1.27;;
41881;SDS011;27562;47.524;12.404;2023-07-13T06:13:44;2.38;;;1.30;;
41881;SDS011;27562;47.524;12.404;2023-07-13T06:16:10;2.97;;;1.20;;
41881;SDS011;27562;47.524;12.404;2023-07-13T06:18:36;3.38;;;1.30;;
41881;SDS011;27562;47.524;12.404;2023-07-13T06:21:09;2.40;;;1.50;;
41881;SDS011;27562;47.524;12.404;2023-07-13T06:23:36;2.50;;;1.50;;
41881;SDS011;27562;47.524;12.404;2023-07-13T06:26:03;2.20;;;1.15;;
41881;SDS011;27562;47.524;12.404;2023-07-13T06:28:29;2.08;;;1.30;;
41881;SDS011;27562;47.524;12.404;2023-07-13T06:30:56;3.05;;;1.67;;
41881;SDS011;27562;47.524;12.404;2023-07-13T06:33:25;2.85;;;1.13;;
41881;SDS011;27562;47.524;12.404;2023-07-13T06:35:51;3.47;;;1.60;;
41881;SDS011;27562;47.524;12.404;2023-07-13T06:38:17;2.63;;;1.35;;
41881;SDS011;27562;47.524;12.404;2023-07-13T06:40:43;3.22;;;1.40;;
41881;SDS011;27562;47.524;12.404;2023-07-13T06:43:08;2.03;;;1.20;;
41881;SDS011;27562;47.524;12.404;2023-07-13T06:45:45;2.13;;;1.20;;
41881;SDS011;27562;47.524;12.404;2023-07-13T06:48:17;2.25;;;1.00;;
41881;SDS011;27562;47.524;12.404;2023-07-13T06:50:44;2.58;;;1.52;;
41881;SDS011;27562;47.524;12.404;2023-07-13T06:53:10;3.33;;;1.30;;
41881;SDS011;27562;47.524;12.404;2023-07-13T06:55:37;2.92;;;1.30;;
41881;SDS011;27562;47.524;12.404;2023-07-13T06:58:03;3.00;;;1.30;;
41881;SDS011;27562;47.524;12.404;2023-07-13T07:00:29;2.58;;;1.50;;
41881;SDS011;27562;47.524;12.404;2023-07-13T07:02:55;3.13;;;1.38;;
41881;SDS011;27562;47.524;12.404;2023-07-13T07:05:21;1.77;;;1.05;;
41881;SDS011;27562;47.524;12.404;2023-07-13T07:07:50;2.50;;;1.20;;
41881;SDS011;27562;47.524;12.404;2023-07-13T07:10:17;1.63;;;0.95;;
41881;SDS011;27562;47.524;12.404;2023-07-13T07:12:43;3.17;;;1.40;;
41881;SDS011;27562;47.524;12.404;2023-07-13T07:15:09;3.50;;;1.27;;
41881;SDS011;27562;47.524;12.404;2023-07-13T07:17:35;2.30;;;1.23;;
41881;SDS011;27562;47.524;12.404;2023-07-13T07:20:01;2.45;;;1.35;;
41881;SDS011;27562;47.524;12.404;2023-07-13T07:22:28;2.00;;;0.98;;
41881;SDS011;27562;47.524;12.404;2023-07-13T07:24:55;2.97;;;1.30;;
41881;SDS011;27562;47.524;12.404;2023-07-13T07:27:21;2.15;;;1.10;;
41881;SDS011;27562;47.524;12.404;2023-07-13T07:29:47;2.30;;;1.30;;
41881;SDS011;27562;47.524;12.404;2023-07-13T07:32:13;4.03;;;1.30;;
41881;SDS011;27562;47.524;12.404;2023-07-13T07:34:39;3.63;;;1.33;;
41881;SDS011;27562;47.524;12.404;2023-07-13T07:37:04;2.30;;;1.27;;
41881;SDS011;27562;47.524;12.404;2023-07-13T07:39:30;1.95;;;1.10;;
41881;SDS011;27562;47.524;12.404;2023-07-13T07:41:56;2.90;;;1.10;;
41881;SDS011;27562;47.524;12.404;2023-07-13T07:44:22;3.92;;;1.40;;
41881;SDS011;27562;47.524;12.404;2023-07-13T07:46:48;2.80;;;1.30;;
41881;SDS011;27562;47.524;12.404;2023-07-13T07:49:14;3.00;;;1.10;;
41881;SDS011;27562;47.524;12.404;2023-07-13T07:51:40;2.22;;;1.30;;
41881;SDS011;27562;47.524;12.404;2023-07-13T07:54:06;3.05;;;1.40;;
41881;SDS011;27562;47.524;12.404;2023-07-13T07:56:31;5.43;;;1.20;;
41881;SDS011;27562;47.524;12.404;2023-07-13T07:58:57;2.45;;;1.15;;
41881;SDS011;27562;47.524;12.404;2023-07-13T08:01:23;1.90;;;1.13;;
41881;SDS011;27562;47.524;12.404;2023-07-13T08:03:49;2.13;;;1.05;;
41881;SDS011;27562;47.524;12.404;2023-07-13T08:06:14;2.72;;;1.38;;
41881;SDS011;27562;47.524;12.404;2023-07-13T08:08:40;2.10;;;0.93;;
41881;SDS011;27562;47.524;12.404;2023-07-13T08:11:07;3.13;;;1.15;;
41881;SDS011;27562;47.524;12.404;2023-07-13T08:13:33;1.92;;;1.30;;
41881;SDS011;27562;47.524;12.404;2023-07-13T08:15:59;5.75;;;1.30;;
41881;SDS011;27562;47.524;12.404;2023-07-13T08:18:25;2.20;;;1.33;;
41881;SDS011;27562;47.524;12.404;2023-07-13T08:20:53;3.30;;;1.30;;
41881;SDS011;27562;47.524;12.404;2023-07-13T08:23:21;5.53;;;2.30;;
41881;SDS011;27562;47.524;12.404;2023-07-13T08:25:53;3.50;;;2.40;;
41881;SDS011;27562;47.524;12.404;2023-07-13T08:28:22;5.18;;;2.58;;
41881;SDS011;27562;47.524;12.404;2023-07-13T08:30:48;5.07;;;2.20;;
41881;SDS011;27562;47.524;12.404;2023-07-13T08:33:18;4.32;;;2.20;;
41881;SDS011;27562;47.524;12.404;2023-07-13T08:35:48;4.75;;;2.33;;
41881;SDS011;27562;47.524;12.404;2023-07-13T08:38:14;4.32;;;2.22;;
41881;SDS011;27562;47.524;12.404;2023-07-13T08:40:40;3.88;;;2.30;;
41881;SDS011;27562;47.524;12.404;2023-07-13T08:43:09;2.67;;;1.80;;
41881;SDS011;27562;47.524;12.404;2023-07-13T08:45:50;3.45;;;2.28;;
41881;SDS011;27562;47.524;12.404;2023-07-13T08:48:43;3.55;;;2.22;;
41881;SDS011;27562;47.524;12.404;2023-07-13T08:55:01;2.78;;;2.00;;
41881;SDS011;27562;47.524;12.404;2023-07-13T08:56:57;6.82;;;2.90;;
41881;SDS011;27562;47.524;12.404;2023-07-13T08:59:27;4.43;;;2.42;;
41881;SDS011;27562;47.524;12.404;2023-07-13T09:04:26;3.03;;;1.92;;
41881;SDS011;27562;47.524;12.404;2023-07-13T09:14:57;5.13;;;3.00;;
41881;SDS011;27562;47.524;12.404;2023-07-13T09:17:28;5.75;;;3.40;;
41881;SDS011;27562;47.524;12.404;2023-07-13T09:19:59;5.28;;;2.97;;
41881;SDS011;27562;47.524;12.404;2023-07-13T09:22:35;4.18;;;2.70;;
41881;SDS011;27562;47.524;12.404;2023-07-13T09:25:23;3.72;;;2.15;;
41881;SDS011;27562;47.524;12.404;2023-07-13T09:28:11;5.32;;;2.75;;
41881;SDS011;27562;47.524;12.404;2023-07-13T09:31:01;5.75;;;2.63;;
41881;SDS011;27562;47.524;12.404;2023-07-13T09:33:48;4.40;;;2.78;;
41881;SDS011;27562;47.524;12.404;2023-07-13T09:38:46;4.32;;;2.72;;
41881;SDS011;27562;47.524;12.404;2023-07-13T09:49:04;4.05;;;2.30;;
41881;SDS011;27562;47.524;12.404;2023-07-13T09:51:29;5.00;;;3.13;;
41881;SDS011;27562;47.524;12.404;2023-07-13T09:53:55;4.47;;;2.50;;
41881;SDS011;27562;47.524;12.404;2023-07-13T09:56:23;4.05;;;2.65;;
41881;SDS011;27562;47.524;12.404;2023-07-13T09:58:51;4.35;;;3.00;;
41881;SDS011;27562;47.524;12.404;2023-07-13T10:01:30;4.57;;;2.88;;
41881;SDS011;27562;47.524;12.404;2023-07-13T10:04:09;5.15;;;2.47;;
41881;SDS011;27562;47.524;12.404;2023-07-13T10:06:38;3.63;;;2.05;;
41881;SDS011;27562;47.524;12.404;2023-07-13T10:09:08;3.40;;;1.50;;
41881;SDS011;27562;47.524;12.404;2023-07-13T10:11:35;3.25;;;1.80;;
41881;SDS011;27562;47.524;12.404;2023-07-13T10:14:15;2.47;;;1.48;;
41881;SDS011;27562;47.524;12.404;2023-07-13T10:16:43;3.38;;;1.60;;
41881;SDS011;27562;47.524;12.404;2023-07-13T10:19:21;2.80;;;1.50;;
41881;SDS011;27562;47.524;12.404;2023-07-13T10:24:32;2.45;;;1.30;;
41881;SDS011;27562;47.524;12.404;2023-07-13T10:29:40;2.30;;;1.40;;
41881;SDS011;27562;47.524;12.404;2023-07-13T10:32:13;2.25;;;1.40;;
41881;SDS011;27562;47.524;12.404;2023-07-13T10:34:40;3.42;;;1.50;;
41881;SDS011;27562;47.524;12.404;2023-07-13T10:37:18;2.47;;;1.40;;
41881;SDS011;27562;47.524;12.404;2023-07-13T10:39:50;3.30;;;1.30;;
41881;SDS011;27562;47.524;12.404;2023-07-13T10:42:23;3.20;;;1.30;;
41881;SDS011;27562;47.524;12.404;2023-07-13T10:44:55;3.72;;;1.48;;
41881;SDS011;27562;47.524;12.404;2023-07-13T10:47:21;4.10;;;1.60;;
41881;SDS011;27562;47.524;12.404;2023-07-13T10:49:47;3.95;;;2.00;;
41881;SDS011;27562;47.524;12.404;2023-07-13T10:58:21;4.43;;;1.90;;
41881;SDS011;27562;47.524;12.404;2023-07-13T11:03:28;5.40;;;3.22;;
41881;SDS011;27562;47.524;12.404;2023-07-13T11:18:48;3.03;;;1.60;;
41881;SDS011;27562;47.524;12.404;2023-07-13T11:21:27;5.10;;;1.48;;
41881;SDS011;27562;47.524;12.404;2023-07-13T11:24:04;5.10;;;1.85;;
41881;SDS011;27562;47.524;12.404;2023-07-13T11:26:40;3.50;;;1.55;;
41881;SDS011;27562;47.524;12.404;2023-07-13T11:31:57;4.38;;;1.60;;
41881;SDS011;27562;47.524;12.404;2023-07-13T11:34:33;4.60;;;1.85;;
41881;SDS011;27562;47.524;12.404;2023-07-13T11:37:01;2.42;;;1.42;;
41881;SDS011;27562;47.524;12.404;2023-07-13T11:42:01;3.50;;;1.88;;
41881;SDS011;27562;47.524;12.404;2023-07-13T11:44:32;5.07;;;1.70;;
41881;SDS011;27562;47.524;12.404;2023-07-13T11:47:08;2.95;;;1.63;;
41881;SDS011;27562;47.524;12.404;2023-07-13T11:49:43;5.45;;;1.50;;
41881;SDS011;27562;47.524;12.404;2023-07-13T11:52:13;3.97;;;1.40;;
41881;SDS011;27562;47.524;12.404;2023-07-13T11:54:51;5.50;;;1.60;;
41881;SDS011;27562;47.524;12.404;2023-07-13T11:59:52;3.17;;;1.75;;
41881;SDS011;27562;47.524;12.404;2023-07-13T12:04:55;4.68;;;2.15;;
41881;SDS011;27562;47.524;12.404;2023-07-13T12:07:21;2.80;;;1.67;;
41881;SDS011;27562;47.524;12.404;2023-07-13T12:09:47;3.00;;;1.92;;
41881;SDS011;27562;47.524;12.404;2023-07-13T12:12:21;3.10;;;1.95;;
41881;SDS011;27562;47.524;12.404;2023-07-13T12:14:50;4.03;;;1.77;;
41881;SDS011;27562;47.524;12.404;2023-07-13T12:17:23;4.25;;;1.95;;
41881;SDS011;27562;47.524;12.404;2023-07-13T12:19:53;3.33;;;1.83;;
41881;SDS011;27562;47.524;12.404;2023-07-13T12:22:19;2.88;;;2.00;;
41881;SDS011;27562;47.524;12.404;2023-07-13T12:24:46;2.88;;;1.90;;
41881;SDS011;27562;47.524;12.404;2023-07-13T12:27:23;3.97;;;1.80;;
41881;SDS011;27562;47.524;12.404;2023-07-13T12:30:01;2.40;;;1.48;;
41881;SDS011;27562;47.524;12.404;2023-07-13T12:32:30;5.40;;;2.00;;
41881;SDS011;27562;47.524;12.404;2023-07-13T12:34:57;6.32;;;2.42;;
41881;SDS011;27562;47.524;12.404;2023-07-13T12:37:48;4.70;;;2.58;;
41881;SDS011;27562;47.524;12.404;2023-07-13T12:40:18;3.45;;;2.10;;
41881;SDS011;27562;47.524;12.404;2023-07-13T12:42:46;3.63;;;1.80;;
41881;SDS011;27562;47.524;12.404;2023-07-13T12:47:46;3.22;;;1.52;;
41881;SDS011;27562;47.524;12.404;2023-07-13T12:50:15;4.85;;;1.95;;
41881;SDS011;27562;47.524;12.404;2023-07-13T12:52:43;2.90;;;1.90;;
41881;SDS011;27562;47.524;12.404;2023-07-13T12:55:14;4.55;;;1.90;;
41881;SDS011;27562;47.524;12.404;2023-07-13T12:57:50;2.95;;;1.50;;
41881;SDS011;27562;47.524;12.404;2023-07-13T13:00:26;3.50;;;1.83;;
41881;SDS011;27562;47.524;12.404;2023-07-13T13:03:00;2.63;;;1.55;;
41881;SDS011;27562;47.524;12.404;2023-07-13T13:05:46;2.95;;;1.60;;
41881;SDS011;27562;47.524;12.404;2023-07-13T13:08:12;4.53;;;1.63;;
41881;SDS011;27562;47.524;12.404;2023-07-13T13:10:38;2.75;;;1.30;;
41881;SDS011;27562;47.524;12.404;2023-07-13T13:13:04;2.78;;;1.40;;
41881;SDS011;27562;47.524;12.404;2023-07-13T13:15:30;2.47;;;1.17;;
41881;SDS011;27562;47.524;12.404;2023-07-13T13:17:56;2.40;;;1.10;;
41881;SDS011;27562;47.524;12.404;2023-07-13T13:20:24;1.50;;;0.90;;
41881;SDS011;27562;47.524;12.404;2023-07-13T13:22:50;2.50;;;1.20;;
41881;SDS011;27562;47.524;12.404;2023-07-13T13:25:17;2.22;;;1.10;;
41881;SDS011;27562;47.524;12.404;2023-07-13T13:27:44;3.30;;;1.20;;
41881;SDS011;27562;47.524;12.404;2023-07-13T13:30:15;2.17;;;1.27;;
41881;SDS011;27562;47.524;12.404;2023-07-13T13:32:42;1.50;;;0.93;;
41881;SDS011;27562;47.524;12.404;2023-07-13T13:35:14;2.65;;;1.38;;
41881;SDS011;27562;47.524;12.404;2023-07-13T13:40:13;2.75;;;1.42;;
41881;SDS011;27562;47.524;12.404;2023-07-13T13:42:41;2.15;;;1.02;;
41881;SDS011;27562;47.524;12.404;2023-07-13T13:45:08;2.67;;;1.08;;
41881;SDS011;27562;47.524;12.404;2023-07-13T13:47:35;2.55;;;1.50;;
41881;SDS011;27562;47.524;12.404;2023-07-13T13:50:04;2.33;;;1.20;;
41881;SDS011;27562;47.524;12.404;2023-07-13T13:52:41;3.80;;;1.30;;
41881;SDS011;27562;47.524;12.404;2023-07-13T13:55:25;2.20;;;1.33;;
41881;SDS011;27562;47.524;12.404;2023-07-13T13:57:54;2.15;;;1.20;;
41881;SDS011;27562;47.524;12.404;2023-07-13T14:00:20;2.50;;;1.48;;
41881;SDS011;27562;47.524;12.404;2023-07-13T14:02:47;3.00;;;1.50;;
41881;SDS011;27562;47.524;12.404;2023-07-13T14:05:16;2.42;;;1.40;;
41881;SDS011;27562;47.524;12.404;2023-07-13T14:10:13;2.10;;;1.00;;
41881;SDS011;27562;47.524;12.404;2023-07-13T14:12:44;2.10;;;1.20;;
41881;SDS011;27562;47.524;12.404;2023-07-13T14:17:48;3.25;;;1.50;;
41881;SDS011;27562;47.524;12.404;2023-07-13T14:20:15;1.95;;;1.25;;
41881;SDS011;27562;47.524;12.404;2023-07-13T14:22:42;2.33;;;1.10;;
41881;SDS011;27562;47.524;12.404;2023-07-13T14:25:12;3.03;;;1.52;;
41881;SDS011;27562;47.524;12.404;2023-07-13T14:27:40;3.67;;;1.23;;
41881;SDS011;27562;47.524;12.404;2023-07-13T14:30:17;2.05;;;1.35;;
41881;SDS011;27562;47.524;12.404;2023-07-13T14:32:45;3.45;;;1.67;;
41881;SDS011;27562;47.524;12.404;2023-07-13T14:35:11;2.88;;;1.13;;
41881;SDS011;27562;47.524;12.404;2023-07-13T14:37:41;2.30;;;1.30;;
41881;SDS011;27562;47.524;12.404;2023-07-13T14:40:15;1.60;;;1.00;;
41881;SDS011;27562;47.524;12.404;2023-07-13T14:42:42;2.38;;;1.40;;
41881;SDS011;27562;47.524;12.404;2023-07-13T14:45:15;2.10;;;1.30;;
41881;SDS011;27562;47.524;12.404;2023-07-13T14:47:42;3.60;;;1.52;;
41881;SDS011;27562;47.524;12.404;2023-07-13T14:50:30;2.50;;;1.40;;
41881;SDS011;27562;47.524;12.404;2023-07-13T14:52:57;2.13;;;1.23;;
41881;SDS011;27562;47.524;12.404;2023-07-13T14:55:23;2.58;;;1.23;;
41881;SDS011;27562;47.524;12.404;2023-07-13T14:57:54;2.72;;;1.40;;
41881;SDS011;27562;47.524;12.404;2023-07-13T15:00:20;4.18;;;1.17;;
41881;SDS011;27562;47.524;12.404;2023-07-13T15:02:50;3.28;;;1.30;;
41881;SDS011;27562;47.524;12.404;2023-07-13T15:05:23;2.28;;;1.20;;
41881;SDS011;27562;47.524;12.404;2023-07-13T15:07:56;2.75;;;1.33;;
41881;SDS011;27562;47.524;12.404;2023-07-13T15:10:25;3.90;;;1.60;;
41881;SDS011;27562;47.524;12.404;2023-07-13T15:12:57;3.10;;;0.98;;
41881;SDS011;27562;47.524;12.404;2023-07-13T15:15:29;1.98;;;1.10;;
41881;SDS011;27562;47.524;12.404;2023-07-13T15:17:58;2.83;;;1.20;;
41881;SDS011;27562;47.524;12.404;2023-07-13T15:20:31;2.58;;;1.30;;
41881;SDS011;27562;47.524;12.404;2023-07-13T15:23:01;2.63;;;1.13;;
41881;SDS011;27562;47.524;12.404;2023-07-13T15:25:29;3.13;;;1.20;;
41881;SDS011;27562;47.524;12.404;2023-07-13T15:27:56;2.20;;;1.20;;
41881;SDS011;27562;47.524;12.404;2023-07-13T15:30:26;3.83;;;1.08;;
41881;SDS011;27562;47.524;12.404;2023-07-13T15:32:59;3.40;;;1.30;;
41881;SDS011;27562;47.524;12.404;2023-07-13T15:35:31;1.65;;;1.00;;
41881;SDS011;27562;47.524;12.404;2023-07-13T15:37:58;3.35;;;1.10;;
41881;SDS011;27562;47.524;12.404;2023-07-13T15:40:24;2.65;;;0.95;;
41881;SDS011;27562;47.524;12.404;2023-07-13T15:42:50;3.15;;;1.08;;
41881;SDS011;27562;47.524;12.404;2023-07-13T15:45:17;1.17;;;0.75;;
41881;SDS011;27562;47.524;12.404;2023-07-13T15:47:43;2.35;;;0.90;;
41881;SDS011;27562;47.524;12.404;2023-07-13T15:50:17;2.50;;;1.20;;
41881;SDS011;27562;47.524;12.404;2023-07-13T15:52:46;2.40;;;1.38;;
41881;SDS011;27562;47.524;12.404;2023-07-13T15:55:17;2.97;;;0.80;;